sensor_id;sensor_type;location;lat;lon;timestamp;P1;durP1;ratioP1;P2;durP2;ratioP2
38238;SDS011;24035;48.900;9.188;2022-08-19T00:00:29;8.65;;;6.03;;
38238;SDS011;24035;48.900;9.188;2022-08-19T00:02:55;8.90;;;6.00;;
38238;SDS011;24035;48.900;9.188;2022-08-19T00:05:21;9.98;;;6.00;;
38238;SDS011;24035;48.900;9.188;2022-08-19T00:07:48;9.25;;;5.50;;
38238;SDS011;24035;48.900;9.188;2022-08-19T00:10:15;10.68;;;6.80;;
38238;SDS011;24035;48.900;9.188;2022-08-19T00:12:42;10.88;;;6.43;;
38238;SDS011;24035;48.900;9.188;2022-08-19T00:15:09;8.35;;;5.80;;
38238;SDS011;24035;48.900;9.188;2022-08-19T00:17:39;10.38;;;6.60;;
38238;SDS011;24035;48.900;9.188;2022-08-19T00:20:06;9.27;;;5.70;;
38238;SDS011;24035;48.900;9.188;2022-08-19T00:22:33;9.05;;;5.47;;
38238;SDS011;24035;48.900;9.188;2022-08-19T00:24:59;9.70;;;5.95;;
38238;SDS011;24035;48.900;9.188;2022-08-19T00:27:25;11.18;;;5.28;;
38238;SDS011;24035;48.900;9.188;2022-08-19T00:29:50;9.55;;;6.03;;
38238;SDS011;24035;48.900;9.188;2022-08-19T00:32:16;8.75;;;6.18;;
38238;SDS011;24035;48.900;9.188;2022-08-19T00:34:42;9.82;;;5.60;;
38238;SDS011;24035;48.900;9.188;2022-08-19T00:37:08;10.77;;;5.55;;
38238;SDS011;24035;48.900;9.188;2022-08-19T00:39:34;9.50;;;5.43;;
38238;SDS011;24035;48.900;9.188;2022-08-19T00:42:00;8.63;;;5.93;;
38238;SDS011;24035;48.900;9.188;2022-08-19T00:44:26;12.05;;;6.75;;
38238;SDS011;24035;48.900;9.188;2022-08-19T00:46:54;9.35;;;6.47;;
38238;SDS011;24035;48.900;9.188;2022-08-19T00:49:29;11.25;;;6.50;;
38238;SDS011;24035;48.900;9.188;2022-08-19T00:52:06;8.52;;;5.75;;
38238;SDS011;24035;48.900;9.188;2022-08-19T00:54:35;8.85;;;6.03;;
38238;SDS011;24035;48.900;9.188;2022-08-19T00:57:03;9.93;;;5.70;;
38238;SDS011;24035;48.900;9.188;2022-08-19T00:59:33;8.68;;;5.70;;
38238;SDS011;24035;48.900;9.188;2022-08-19T01:02:01;11.05;;;5.93;;
38238;SDS011;24035;48.900;9.188;2022-08-19T01:04:28;9.52;;;5.85;;
38238;SDS011;24035;48.900;9.188;2022-08-19T01:06:53;10.40;;;6.07;;
38238;SDS011;24035;48.900;9.188;2022-08-19T01:09:21;9.90;;;6.28;;
38238;SDS011;24035;48.900;9.188;2022-08-19T01:11:47;15.73;;;6.53;;
38238;SDS011;24035;48.900;9.188;2022-08-19T01:14:12;12.20;;;6.03;;
38238;SDS011;24035;48.900;9.188;2022-08-19T01:16:39;9.93;;;6.20;;
38238;SDS011;24035;48.900;9.188;2022-08-19T01:19:10;9.70;;;6.10;;
38238;SDS011;24035;48.900;9.188;2022-08-19T01:22:02;10.38;;;6.40;;
38238;SDS011;24035;48.900;9.188;2022-08-19T01:24:33;8.88;;;5.75;;
38238;SDS011;24035;48.900;9.188;2022-08-19T01:26:59;10.55;;;6.28;;
38238;SDS011;24035;48.900;9.188;2022-08-19T01:29:24;12.25;;;6.97;;
38238;SDS011;24035;48.900;9.188;2022-08-19T01:31:50;13.25;;;6.07;;
38238;SDS011;24035;48.900;9.188;2022-08-19T01:34:18;10.43;;;6.53;;
38238;SDS011;24035;48.900;9.188;2022-08-19T01:36:45;9.13;;;6.22;;
38238;SDS011;24035;48.900;9.188;2022-08-19T01:39:16;10.80;;;6.38;;
38238;SDS011;24035;48.900;9.188;2022-08-19T01:41:47;10.18;;;6.05;;
38238;SDS011;24035;48.900;9.188;2022-08-19T01:44:13;9.68;;;6.28;;
38238;SDS011;24035;48.900;9.188;2022-08-19T01:46:39;10.32;;;6.38;;
38238;SDS011;24035;48.900;9.188;2022-08-19T01:49:06;11.63;;;6.78;;
38238;SDS011;24035;48.900;9.188;2022-08-19T01:51:32;12.32;;;6.90;;
38238;SDS011;24035;48.900;9.188;2022-08-19T01:53:58;11.77;;;6.97;;
38238;SDS011;24035;48.900;9.188;2022-08-19T01:56:24;11.00;;;7.50;;
38238;SDS011;24035;48.900;9.188;2022-08-19T01:58:54;11.77;;;6.88;;
38238;SDS011;24035;48.900;9.188;2022-08-19T02:01:23;13.68;;;7.10;;
38238;SDS011;24035;48.900;9.188;2022-08-19T02:03:49;13.32;;;7.55;;
38238;SDS011;24035;48.900;9.188;2022-08-19T02:06:15;12.00;;;7.65;;
38238;SDS011;24035;48.900;9.188;2022-08-19T02:08:42;11.45;;;7.25;;
38238;SDS011;24035;48.900;9.188;2022-08-19T02:11:17;12.75;;;6.93;;
38238;SDS011;24035;48.900;9.188;2022-08-19T02:13:44;14.75;;;7.80;;
38238;SDS011;24035;48.900;9.188;2022-08-19T02:16:10;10.63;;;6.90;;
38238;SDS011;24035;48.900;9.188;2022-08-19T02:21:11;12.48;;;7.30;;
38238;SDS011;24035;48.900;9.188;2022-08-19T02:23:37;10.60;;;7.35;;
38238;SDS011;24035;48.900;9.188;2022-08-19T02:29:25;12.48;;;7.57;;
38238;SDS011;24035;48.900;9.188;2022-08-19T02:31:51;15.65;;;8.68;;
38238;SDS011;24035;48.900;9.188;2022-08-19T02:34:17;13.77;;;7.65;;
38238;SDS011;24035;48.900;9.188;2022-08-19T02:36:42;12.30;;;6.97;;
38238;SDS011;24035;48.900;9.188;2022-08-19T02:39:08;11.70;;;7.40;;
38238;SDS011;24035;48.900;9.188;2022-08-19T02:41:34;13.35;;;7.95;;
38238;SDS011;24035;48.900;9.188;2022-08-19T02:44:02;10.82;;;7.93;;
38238;SDS011;24035;48.900;9.188;2022-08-19T02:46:30;12.23;;;8.23;;
38238;SDS011;24035;48.900;9.188;2022-08-19T02:52:19;12.70;;;8.05;;
38238;SDS011;24035;48.900;9.188;2022-08-19T02:54:45;13.30;;;7.75;;
38238;SDS011;24035;48.900;9.188;2022-08-19T03:00:22;15.40;;;8.43;;
38238;SDS011;24035;48.900;9.188;2022-08-19T03:02:49;13.52;;;7.95;;
38238;SDS011;24035;48.900;9.188;2022-08-19T03:05:15;15.07;;;8.25;;
38238;SDS011;24035;48.900;9.188;2022-08-19T03:07:41;12.40;;;7.72;;
38238;SDS011;24035;48.900;9.188;2022-08-19T03:10:07;14.68;;;9.02;;
38238;SDS011;24035;48.900;9.188;2022-08-19T03:12:35;16.77;;;9.95;;
38238;SDS011;24035;48.900;9.188;2022-08-19T03:15:03;16.35;;;9.75;;
38238;SDS011;24035;48.900;9.188;2022-08-19T03:17:32;13.88;;;8.75;;
38238;SDS011;24035;48.900;9.188;2022-08-19T03:19:59;15.20;;;9.00;;
38238;SDS011;24035;48.900;9.188;2022-08-19T03:22:24;17.50;;;8.77;;
38238;SDS011;24035;48.900;9.188;2022-08-19T03:24:50;13.55;;;8.82;;
38238;SDS011;24035;48.900;9.188;2022-08-19T03:27:16;13.82;;;8.63;;
38238;SDS011;24035;48.900;9.188;2022-08-19T03:29:42;13.48;;;8.48;;
38238;SDS011;24035;48.900;9.188;2022-08-19T03:32:08;14.02;;;9.55;;
38238;SDS011;24035;48.900;9.188;2022-08-19T03:34:36;11.02;;;8.57;;
38238;SDS011;24035;48.900;9.188;2022-08-19T03:37:04;15.50;;;9.57;;
38238;SDS011;24035;48.900;9.188;2022-08-19T03:39:31;16.42;;;9.57;;
38238;SDS011;24035;48.900;9.188;2022-08-19T03:41:58;15.10;;;9.45;;
38238;SDS011;24035;48.900;9.188;2022-08-19T03:44:27;17.85;;;10.15;;
38238;SDS011;24035;48.900;9.188;2022-08-19T03:46:55;17.50;;;10.68;;
38238;SDS011;24035;48.900;9.188;2022-08-19T03:49:27;15.68;;;10.50;;
38238;SDS011;24035;48.900;9.188;2022-08-19T03:51:54;17.58;;;9.35;;
38238;SDS011;24035;48.900;9.188;2022-08-19T03:54:23;16.67;;;10.07;;
38238;SDS011;24035;48.900;9.188;2022-08-19T03:56:51;13.70;;;8.15;;
38238;SDS011;24035;48.900;9.188;2022-08-19T03:59:26;14.52;;;9.02;;
38238;SDS011;24035;48.900;9.188;2022-08-19T04:01:54;16.88;;;9.73;;
38238;SDS011;24035;48.900;9.188;2022-08-19T04:04:21;16.83;;;10.15;;
38238;SDS011;24035;48.900;9.188;2022-08-19T04:06:47;16.23;;;9.57;;
38238;SDS011;24035;48.900;9.188;2022-08-19T04:09:14;17.95;;;10.13;;
38238;SDS011;24035;48.900;9.188;2022-08-19T04:11:41;13.40;;;9.38;;
38238;SDS011;24035;48.900;9.188;2022-08-19T04:14:13;14.52;;;9.70;;
38238;SDS011;24035;48.900;9.188;2022-08-19T04:16:41;13.93;;;9.25;;
38238;SDS011;24035;48.900;9.188;2022-08-19T04:19:09;15.20;;;10.05;;
38238;SDS011;24035;48.900;9.188;2022-08-19T04:21:35;15.57;;;9.63;;
38238;SDS011;24035;48.900;9.188;2022-08-19T04:24:01;18.67;;;10.30;;
38238;SDS011;24035;48.900;9.188;2022-08-19T04:26:29;15.95;;;9.65;;
38238;SDS011;24035;48.900;9.188;2022-08-19T04:28:57;15.30;;;9.88;;
38238;SDS011;24035;48.900;9.188;2022-08-19T04:31:25;15.05;;;9.85;;
38238;SDS011;24035;48.900;9.188;2022-08-19T04:33:53;16.17;;;9.82;;
38238;SDS011;24035;48.900;9.188;2022-08-19T04:36:22;15.90;;;10.52;;
38238;SDS011;24035;48.900;9.188;2022-08-19T04:38:52;15.57;;;9.32;;
38238;SDS011;24035;48.900;9.188;2022-08-19T04:41:20;16.83;;;10.55;;
38238;SDS011;24035;48.900;9.188;2022-08-19T04:44:05;15.18;;;10.27;;
38238;SDS011;24035;48.900;9.188;2022-08-19T04:46:31;15.57;;;10.63;;
38238;SDS011;24035;48.900;9.188;2022-08-19T04:48:57;17.75;;;10.57;;
38238;SDS011;24035;48.900;9.188;2022-08-19T04:54:52;13.48;;;10.00;;
38238;SDS011;24035;48.900;9.188;2022-08-19T04:57:28;13.43;;;9.55;;
38238;SDS011;24035;48.900;9.188;2022-08-19T04:59:54;15.43;;;9.32;;
38238;SDS011;24035;48.900;9.188;2022-08-19T05:02:21;12.82;;;9.23;;
38238;SDS011;24035;48.900;9.188;2022-08-19T05:04:57;14.57;;;9.77;;
38238;SDS011;24035;48.900;9.188;2022-08-19T05:07:24;15.63;;;9.68;;
38238;SDS011;24035;48.900;9.188;2022-08-19T05:09:50;16.45;;;9.80;;
38238;SDS011;24035;48.900;9.188;2022-08-19T05:12:16;15.50;;;10.23;;
38238;SDS011;24035;48.900;9.188;2022-08-19T05:14:42;14.82;;;9.85;;
38238;SDS011;24035;48.900;9.188;2022-08-19T05:17:10;16.90;;;10.40;;
38238;SDS011;24035;48.900;9.188;2022-08-19T05:19:35;14.30;;;9.80;;
38238;SDS011;24035;48.900;9.188;2022-08-19T05:22:19;13.20;;;9.30;;
38238;SDS011;24035;48.900;9.188;2022-08-19T05:24:59;14.85;;;9.35;;
38238;SDS011;24035;48.900;9.188;2022-08-19T05:27:28;14.88;;;10.38;;
38238;SDS011;24035;48.900;9.188;2022-08-19T05:29:53;17.63;;;10.90;;
38238;SDS011;24035;48.900;9.188;2022-08-19T05:32:19;18.08;;;9.50;;
38238;SDS011;24035;48.900;9.188;2022-08-19T05:34:46;14.95;;;10.13;;
38238;SDS011;24035;48.900;9.188;2022-08-19T05:37:12;13.30;;;9.43;;
38238;SDS011;24035;48.900;9.188;2022-08-19T05:39:38;16.00;;;9.43;;
38238;SDS011;24035;48.900;9.188;2022-08-19T05:42:05;15.88;;;10.20;;
38238;SDS011;24035;48.900;9.188;2022-08-19T05:44:34;13.95;;;9.35;;
38238;SDS011;24035;48.900;9.188;2022-08-19T05:47:02;13.45;;;9.23;;
38238;SDS011;24035;48.900;9.188;2022-08-19T05:49:30;14.60;;;8.93;;
38238;SDS011;24035;48.900;9.188;2022-08-19T05:51:56;14.52;;;9.27;;
38238;SDS011;24035;48.900;9.188;2022-08-19T05:54:23;15.57;;;9.27;;
38238;SDS011;24035;48.900;9.188;2022-08-19T05:56:50;15.00;;;9.85;;
38238;SDS011;24035;48.900;9.188;2022-08-19T05:59:18;17.92;;;10.15;;
38238;SDS011;24035;48.900;9.188;2022-08-19T06:01:46;15.75;;;10.10;;
38238;SDS011;24035;48.900;9.188;2022-08-19T06:04:16;16.33;;;9.82;;
38238;SDS011;24035;48.900;9.188;2022-08-19T06:06:44;18.92;;;10.52;;
38238;SDS011;24035;48.900;9.188;2022-08-19T06:09:12;15.55;;;10.18;;
38238;SDS011;24035;48.900;9.188;2022-08-19T06:11:39;15.00;;;10.02;;
38238;SDS011;24035;48.900;9.188;2022-08-19T06:14:11;17.13;;;10.53;;
38238;SDS011;24035;48.900;9.188;2022-08-19T06:16:42;16.42;;;10.48;;
38238;SDS011;24035;48.900;9.188;2022-08-19T06:19:09;16.73;;;10.75;;
38238;SDS011;24035;48.900;9.188;2022-08-19T06:21:38;18.38;;;10.48;;
38238;SDS011;24035;48.900;9.188;2022-08-19T06:24:06;16.48;;;10.20;;
38238;SDS011;24035;48.900;9.188;2022-08-19T06:26:34;17.95;;;10.55;;
38238;SDS011;24035;48.900;9.188;2022-08-19T06:29:02;16.00;;;9.60;;
38238;SDS011;24035;48.900;9.188;2022-08-19T06:31:30;16.42;;;10.15;;
38238;SDS011;24035;48.900;9.188;2022-08-19T06:33:58;14.10;;;9.48;;
38238;SDS011;24035;48.900;9.188;2022-08-19T06:36:28;15.98;;;10.35;;
38238;SDS011;24035;48.900;9.188;2022-08-19T06:39:00;15.95;;;10.95;;
38238;SDS011;24035;48.900;9.188;2022-08-19T06:41:29;13.98;;;10.27;;
38238;SDS011;24035;48.900;9.188;2022-08-19T06:43:56;15.82;;;10.05;;
38238;SDS011;24035;48.900;9.188;2022-08-19T06:46:22;16.48;;;10.48;;
38238;SDS011;24035;48.900;9.188;2022-08-19T06:48:48;15.10;;;9.90;;
38238;SDS011;24035;48.900;9.188;2022-08-19T06:51:14;15.07;;;9.98;;
38238;SDS011;24035;48.900;9.188;2022-08-19T06:53:44;17.55;;;9.90;;
38238;SDS011;24035;48.900;9.188;2022-08-19T06:56:12;13.38;;;9.65;;
38238;SDS011;24035;48.900;9.188;2022-08-19T06:58:42;16.15;;;9.73;;
38238;SDS011;24035;48.900;9.188;2022-08-19T07:01:08;14.18;;;9.52;;
38238;SDS011;24035;48.900;9.188;2022-08-19T07:03:35;13.30;;;9.32;;
38238;SDS011;24035;48.900;9.188;2022-08-19T07:06:02;16.40;;;10.43;;
38238;SDS011;24035;48.900;9.188;2022-08-19T07:08:29;14.85;;;9.23;;
38238;SDS011;24035;48.900;9.188;2022-08-19T07:10:55;12.77;;;9.25;;
38238;SDS011;24035;48.900;9.188;2022-08-19T07:13:21;17.30;;;10.05;;
38238;SDS011;24035;48.900;9.188;2022-08-19T07:15:47;12.45;;;8.63;;
38238;SDS011;24035;48.900;9.188;2022-08-19T07:18:14;15.88;;;9.07;;
38238;SDS011;24035;48.900;9.188;2022-08-19T07:20:40;12.13;;;8.88;;
38238;SDS011;24035;48.900;9.188;2022-08-19T07:23:06;13.43;;;9.27;;
38238;SDS011;24035;48.900;9.188;2022-08-19T07:25:32;15.18;;;9.30;;
38238;SDS011;24035;48.900;9.188;2022-08-19T07:27:58;12.77;;;9.07;;
38238;SDS011;24035;48.900;9.188;2022-08-19T07:30:23;11.90;;;8.15;;
38238;SDS011;24035;48.900;9.188;2022-08-19T07:32:49;12.60;;;8.95;;
38238;SDS011;24035;48.900;9.188;2022-08-19T07:35:17;11.48;;;8.43;;
38238;SDS011;24035;48.900;9.188;2022-08-19T07:37:44;13.68;;;8.88;;
38238;SDS011;24035;48.900;9.188;2022-08-19T07:40:10;13.95;;;8.95;;
38238;SDS011;24035;48.900;9.188;2022-08-19T07:42:37;14.55;;;8.68;;
38238;SDS011;24035;48.900;9.188;2022-08-19T07:45:03;12.50;;;8.18;;
38238;SDS011;24035;48.900;9.188;2022-08-19T07:47:30;13.30;;;9.32;;
38238;SDS011;24035;48.900;9.188;2022-08-19T07:49:56;12.30;;;8.82;;
38238;SDS011;24035;48.900;9.188;2022-08-19T07:52:21;14.18;;;8.50;;
38238;SDS011;24035;48.900;9.188;2022-08-19T07:54:47;12.02;;;8.27;;
38238;SDS011;24035;48.900;9.188;2022-08-19T07:57:14;10.48;;;7.65;;
38238;SDS011;24035;48.900;9.188;2022-08-19T07:59:41;10.43;;;7.93;;
38238;SDS011;24035;48.900;9.188;2022-08-19T08:02:07;9.80;;;7.15;;
38238;SDS011;24035;48.900;9.188;2022-08-19T08:04:34;11.35;;;8.07;;
38238;SDS011;24035;48.900;9.188;2022-08-19T08:07:18;12.35;;;7.75;;
38238;SDS011;24035;48.900;9.188;2022-08-19T08:10:04;12.13;;;7.60;;
38238;SDS011;24035;48.900;9.188;2022-08-19T08:12:33;12.35;;;7.88;;
38238;SDS011;24035;48.900;9.188;2022-08-19T08:15:05;12.20;;;8.02;;
38238;SDS011;24035;48.900;9.188;2022-08-19T08:17:34;12.55;;;8.13;;
38238;SDS011;24035;48.900;9.188;2022-08-19T08:20:02;12.93;;;7.72;;
38238;SDS011;24035;48.900;9.188;2022-08-19T08:22:31;11.52;;;7.82;;
38238;SDS011;24035;48.900;9.188;2022-08-19T08:25:17;11.90;;;7.88;;
38238;SDS011;24035;48.900;9.188;2022-08-19T08:27:46;10.55;;;6.95;;
38238;SDS011;24035;48.900;9.188;2022-08-19T08:30:17;10.50;;;6.97;;
38238;SDS011;24035;48.900;9.188;2022-08-19T08:32:48;11.32;;;8.20;;
38238;SDS011;24035;48.900;9.188;2022-08-19T08:35:16;13.07;;;7.95;;
38238;SDS011;24035;48.900;9.188;2022-08-19T08:37:44;13.38;;;7.68;;
38238;SDS011;24035;48.900;9.188;2022-08-19T08:40:19;13.13;;;7.68;;
38238;SDS011;24035;48.900;9.188;2022-08-19T08:43:07;12.07;;;7.43;;
38238;SDS011;24035;48.900;9.188;2022-08-19T08:45:51;9.32;;;7.13;;
38238;SDS011;24035;48.900;9.188;2022-08-19T08:48:41;12.75;;;7.60;;
38238;SDS011;24035;48.900;9.188;2022-08-19T08:51:16;9.88;;;7.15;;
38238;SDS011;24035;48.900;9.188;2022-08-19T08:53:48;10.95;;;7.13;;
38238;SDS011;24035;48.900;9.188;2022-08-19T08:56:16;12.55;;;6.97;;
38238;SDS011;24035;48.900;9.188;2022-08-19T08:58:48;12.43;;;6.93;;
38238;SDS011;24035;48.900;9.188;2022-08-19T09:01:23;11.43;;;6.65;;
38238;SDS011;24035;48.900;9.188;2022-08-19T09:03:48;9.70;;;6.47;;
38238;SDS011;24035;48.900;9.188;2022-08-19T09:06:19;13.38;;;7.15;;
38238;SDS011;24035;48.900;9.188;2022-08-19T09:11:45;9.30;;;6.68;;
38238;SDS011;24035;48.900;9.188;2022-08-19T09:17:10;11.05;;;6.43;;
38238;SDS011;24035;48.900;9.188;2022-08-19T09:19:48;10.32;;;6.15;;
38238;SDS011;24035;48.900;9.188;2022-08-19T09:22:18;11.27;;;7.65;;
38238;SDS011;24035;48.900;9.188;2022-08-19T09:24:50;10.38;;;6.28;;
38238;SDS011;24035;48.900;9.188;2022-08-19T09:27:20;9.38;;;6.35;;
38238;SDS011;24035;48.900;9.188;2022-08-19T09:29:48;10.82;;;6.63;;
38238;SDS011;24035;48.900;9.188;2022-08-19T09:32:15;9.73;;;5.53;;
38238;SDS011;24035;48.900;9.188;2022-08-19T09:34:42;9.90;;;6.13;;
38238;SDS011;24035;48.900;9.188;2022-08-19T09:37:08;9.73;;;5.95;;
38238;SDS011;24035;48.900;9.188;2022-08-19T09:39:34;10.93;;;5.93;;
38238;SDS011;24035;48.900;9.188;2022-08-19T09:41:59;12.48;;;6.38;;
38238;SDS011;24035;48.900;9.188;2022-08-19T09:44:25;13.73;;;7.13;;
38238;SDS011;24035;48.900;9.188;2022-08-19T09:46:51;8.15;;;5.47;;
38238;SDS011;24035;48.900;9.188;2022-08-19T09:49:17;9.93;;;5.95;;
38238;SDS011;24035;48.900;9.188;2022-08-19T09:51:50;10.98;;;6.07;;
38238;SDS011;24035;48.900;9.188;2022-08-19T09:54:17;10.77;;;6.10;;
38238;SDS011;24035;48.900;9.188;2022-08-19T09:56:43;8.77;;;6.10;;
38238;SDS011;24035;48.900;9.188;2022-08-19T09:59:09;9.35;;;5.20;;
38238;SDS011;24035;48.900;9.188;2022-08-19T10:01:37;7.75;;;5.78;;
38238;SDS011;24035;48.900;9.188;2022-08-19T10:04:03;9.57;;;6.50;;
38238;SDS011;24035;48.900;9.188;2022-08-19T10:06:36;11.70;;;6.30;;
38238;SDS011;24035;48.900;9.188;2022-08-19T10:09:04;8.13;;;5.55;;
38238;SDS011;24035;48.900;9.188;2022-08-19T10:11:31;10.10;;;6.22;;
38238;SDS011;24035;48.900;9.188;2022-08-19T10:13:58;10.32;;;6.35;;
38238;SDS011;24035;48.900;9.188;2022-08-19T10:16:24;9.25;;;5.68;;
38238;SDS011;24035;48.900;9.188;2022-08-19T10:18:51;8.15;;;5.35;;
38238;SDS011;24035;48.900;9.188;2022-08-19T10:21:19;7.63;;;5.47;;
38238;SDS011;24035;48.900;9.188;2022-08-19T10:23:50;9.38;;;6.05;;
38238;SDS011;24035;48.900;9.188;2022-08-19T10:26:19;7.18;;;4.85;;
38238;SDS011;24035;48.900;9.188;2022-08-19T10:28:47;10.70;;;5.18;;
38238;SDS011;24035;48.900;9.188;2022-08-19T10:31:17;7.25;;;5.10;;
38238;SDS011;24035;48.900;9.188;2022-08-19T10:33:48;8.55;;;5.47;;
38238;SDS011;24035;48.900;9.188;2022-08-19T10:36:19;9.88;;;4.93;;
38238;SDS011;24035;48.900;9.188;2022-08-19T10:38:49;7.00;;;4.97;;
38238;SDS011;24035;48.900;9.188;2022-08-19T10:41:20;6.75;;;4.03;;
38238;SDS011;24035;48.900;9.188;2022-08-19T10:43:50;7.20;;;4.00;;
38238;SDS011;24035;48.900;9.188;2022-08-19T10:46:19;7.15;;;4.10;;
38238;SDS011;24035;48.900;9.188;2022-08-19T10:48:47;7.05;;;3.80;;
38238;SDS011;24035;48.900;9.188;2022-08-19T10:51:14;7.05;;;3.38;;
38238;SDS011;24035;48.900;9.188;2022-08-19T10:54:16;7.60;;;3.45;;
38238;SDS011;24035;48.900;9.188;2022-08-19T10:56:42;6.25;;;3.70;;
38238;SDS011;24035;48.900;9.188;2022-08-19T10:59:27;7.32;;;3.35;;
38238;SDS011;24035;48.900;9.188;2022-08-19T11:01:58;7.85;;;3.35;;
38238;SDS011;24035;48.900;9.188;2022-08-19T11:04:25;6.10;;;3.28;;
38238;SDS011;24035;48.900;9.188;2022-08-19T11:06:51;4.90;;;3.20;;
38238;SDS011;24035;48.900;9.188;2022-08-19T11:09:18;5.43;;;3.40;;
38238;SDS011;24035;48.900;9.188;2022-08-19T11:11:45;5.10;;;3.13;;
38238;SDS011;24035;48.900;9.188;2022-08-19T11:14:13;8.32;;;3.55;;
38238;SDS011;24035;48.900;9.188;2022-08-19T11:16:43;6.40;;;3.63;;
38238;SDS011;24035;48.900;9.188;2022-08-19T11:19:10;6.55;;;3.67;;
38238;SDS011;24035;48.900;9.188;2022-08-19T11:21:41;7.40;;;3.40;;
38238;SDS011;24035;48.900;9.188;2022-08-19T11:24:12;7.32;;;4.47;;
38238;SDS011;24035;48.900;9.188;2022-08-19T11:26:49;9.07;;;3.80;;
38238;SDS011;24035;48.900;9.188;2022-08-19T11:29:17;8.00;;;4.07;;
38238;SDS011;24035;48.900;9.188;2022-08-19T11:31:47;8.32;;;3.88;;
38238;SDS011;24035;48.900;9.188;2022-08-19T11:34:16;9.02;;;3.38;;
38238;SDS011;24035;48.900;9.188;2022-08-19T11:36:44;7.50;;;3.63;;
38238;SDS011;24035;48.900;9.188;2022-08-19T11:39:14;5.43;;;3.47;;
38238;SDS011;24035;48.900;9.188;2022-08-19T11:41:40;7.65;;;3.55;;
38238;SDS011;24035;48.900;9.188;2022-08-19T11:44:06;6.55;;;4.03;;
38238;SDS011;24035;48.900;9.188;2022-08-19T11:46:33;5.57;;;3.13;;
38238;SDS011;24035;48.900;9.188;2022-08-19T11:49:02;5.88;;;3.58;;
38238;SDS011;24035;48.900;9.188;2022-08-19T11:51:30;7.38;;;3.42;;
38238;SDS011;24035;48.900;9.188;2022-08-19T11:53:57;7.05;;;3.35;;
38238;SDS011;24035;48.900;9.188;2022-08-19T11:56:24;7.70;;;3.85;;
38238;SDS011;24035;48.900;9.188;2022-08-19T11:58:51;6.32;;;3.83;;
38238;SDS011;24035;48.900;9.188;2022-08-19T12:01:18;7.22;;;3.83;;
38238;SDS011;24035;48.900;9.188;2022-08-19T12:03:46;6.55;;;3.97;;
38238;SDS011;24035;48.900;9.188;2022-08-19T12:06:15;6.93;;;3.80;;
38238;SDS011;24035;48.900;9.188;2022-08-19T12:08:44;9.50;;;4.40;;
38238;SDS011;24035;48.900;9.188;2022-08-19T12:11:10;6.75;;;4.70;;
38238;SDS011;24035;48.900;9.188;2022-08-19T12:13:37;8.57;;;4.15;;
38238;SDS011;24035;48.900;9.188;2022-08-19T12:16:10;6.20;;;3.78;;
38238;SDS011;24035;48.900;9.188;2022-08-19T12:18:37;6.22;;;3.97;;
38238;SDS011;24035;48.900;9.188;2022-08-19T12:21:06;6.38;;;4.15;;
38238;SDS011;24035;48.900;9.188;2022-08-19T12:23:32;5.78;;;3.63;;
38238;SDS011;24035;48.900;9.188;2022-08-19T12:25:57;5.70;;;3.75;;
38238;SDS011;24035;48.900;9.188;2022-08-19T12:28:24;8.38;;;4.15;;
38238;SDS011;24035;48.900;9.188;2022-08-19T12:30:50;6.15;;;3.80;;
38238;SDS011;24035;48.900;9.188;2022-08-19T12:33:17;6.22;;;3.42;;
38238;SDS011;24035;48.900;9.188;2022-08-19T12:35:45;6.00;;;4.15;;
38238;SDS011;24035;48.900;9.188;2022-08-19T12:38:11;8.77;;;4.00;;
38238;SDS011;24035;48.900;9.188;2022-08-19T12:40:38;4.85;;;3.17;;
38238;SDS011;24035;48.900;9.188;2022-08-19T12:43:05;6.10;;;3.50;;
38238;SDS011;24035;48.900;9.188;2022-08-19T12:45:32;5.68;;;3.45;;
38238;SDS011;24035;48.900;9.188;2022-08-19T12:47:57;5.00;;;3.35;;
38238;SDS011;24035;48.900;9.188;2022-08-19T12:50:23;8.35;;;3.80;;
38238;SDS011;24035;48.900;9.188;2022-08-19T12:52:49;6.55;;;4.00;;
38238;SDS011;24035;48.900;9.188;2022-08-19T12:55:15;7.47;;;3.55;;
38238;SDS011;24035;48.900;9.188;2022-08-19T12:57:41;5.85;;;3.10;;
38238;SDS011;24035;48.900;9.188;2022-08-19T13:00:08;4.20;;;2.85;;
38238;SDS011;24035;48.900;9.188;2022-08-19T13:02:42;8.00;;;3.13;;
38238;SDS011;24035;48.900;9.188;2022-08-19T13:05:11;4.57;;;3.00;;
38238;SDS011;24035;48.900;9.188;2022-08-19T13:07:39;4.55;;;2.83;;
38238;SDS011;24035;48.900;9.188;2022-08-19T13:10:06;4.68;;;2.72;;
38238;SDS011;24035;48.900;9.188;2022-08-19T13:12:33;7.43;;;2.75;;
38238;SDS011;24035;48.900;9.188;2022-08-19T13:14:58;5.32;;;2.55;;
38238;SDS011;24035;48.900;9.188;2022-08-19T13:17:24;4.80;;;2.92;;
38238;SDS011;24035;48.900;9.188;2022-08-19T13:19:50;5.05;;;2.85;;
38238;SDS011;24035;48.900;9.188;2022-08-19T13:22:16;4.88;;;2.45;;
38238;SDS011;24035;48.900;9.188;2022-08-19T13:24:41;4.10;;;2.55;;
38238;SDS011;24035;48.900;9.188;2022-08-19T13:27:07;5.32;;;3.22;;
38238;SDS011;24035;48.900;9.188;2022-08-19T13:29:33;5.05;;;2.97;;
38238;SDS011;24035;48.900;9.188;2022-08-19T13:32:17;5.05;;;3.20;;
38238;SDS011;24035;48.900;9.188;2022-08-19T13:35:02;4.85;;;3.00;;
38238;SDS011;24035;48.900;9.188;2022-08-19T13:37:28;5.22;;;3.20;;
38238;SDS011;24035;48.900;9.188;2022-08-19T13:40:10;4.43;;;3.08;;
38238;SDS011;24035;48.900;9.188;2022-08-19T13:42:38;5.40;;;2.97;;
38238;SDS011;24035;48.900;9.188;2022-08-19T13:45:04;5.65;;;3.28;;
38238;SDS011;24035;48.900;9.188;2022-08-19T13:47:32;4.93;;;3.00;;
38238;SDS011;24035;48.900;9.188;2022-08-19T13:49:59;4.80;;;2.80;;
38238;SDS011;24035;48.900;9.188;2022-08-19T13:52:30;5.20;;;3.17;;
38238;SDS011;24035;48.900;9.188;2022-08-19T13:54:55;5.00;;;3.13;;
38238;SDS011;24035;48.900;9.188;2022-08-19T13:57:21;11.88;;;4.72;;
38238;SDS011;24035;48.900;9.188;2022-08-19T13:59:47;9.02;;;5.82;;
38238;SDS011;24035;48.900;9.188;2022-08-19T14:02:13;9.75;;;6.10;;
38238;SDS011;24035;48.900;9.188;2022-08-19T14:04:38;8.98;;;6.95;;
38238;SDS011;24035;48.900;9.188;2022-08-19T14:07:04;10.23;;;6.57;;
38238;SDS011;24035;48.900;9.188;2022-08-19T14:09:30;8.55;;;5.88;;
38238;SDS011;24035;48.900;9.188;2022-08-19T14:11:56;10.60;;;7.15;;
38238;SDS011;24035;48.900;9.188;2022-08-19T14:14:22;10.13;;;7.30;;
38238;SDS011;24035;48.900;9.188;2022-08-19T14:16:48;10.90;;;7.47;;
38238;SDS011;24035;48.900;9.188;2022-08-19T14:19:14;11.35;;;7.55;;
38238;SDS011;24035;48.900;9.188;2022-08-19T14:21:40;10.88;;;8.18;;
38238;SDS011;24035;48.900;9.188;2022-08-19T14:24:06;13.32;;;8.15;;
38238;SDS011;24035;48.900;9.188;2022-08-19T14:26:33;12.95;;;8.13;;
38238;SDS011;24035;48.900;9.188;2022-08-19T14:28:59;11.50;;;8.15;;
38238;SDS011;24035;48.900;9.188;2022-08-19T14:31:26;10.75;;;8.02;;
38238;SDS011;24035;48.900;9.188;2022-08-19T14:33:52;12.73;;;8.10;;
38238;SDS011;24035;48.900;9.188;2022-08-19T14:36:18;14.15;;;7.85;;
38238;SDS011;24035;48.900;9.188;2022-08-19T14:38:45;14.07;;;8.70;;
38238;SDS011;24035;48.900;9.188;2022-08-19T14:41:12;15.00;;;9.10;;
38238;SDS011;24035;48.900;9.188;2022-08-19T14:43:42;11.13;;;8.70;;
38238;SDS011;24035;48.900;9.188;2022-08-19T14:46:11;13.73;;;8.90;;
38238;SDS011;24035;48.900;9.188;2022-08-19T14:48:41;13.30;;;8.43;;
38238;SDS011;24035;48.900;9.188;2022-08-19T14:51:07;12.73;;;8.55;;
38238;SDS011;24035;48.900;9.188;2022-08-19T14:53:33;12.48;;;8.68;;
38238;SDS011;24035;48.900;9.188;2022-08-19T14:56:00;14.15;;;9.02;;
38238;SDS011;24035;48.900;9.188;2022-08-19T14:58:27;12.10;;;8.65;;
38238;SDS011;24035;48.900;9.188;2022-08-19T15:00:53;12.80;;;9.23;;
38238;SDS011;24035;48.900;9.188;2022-08-19T15:03:18;15.80;;;9.55;;
38238;SDS011;24035;48.900;9.188;2022-08-19T15:05:44;13.15;;;8.68;;